Ana Sayfa
METAR-TAF:

METAR-TAF

Havaalanları :

Natchitoches Regional Airport

Natchitoches, Louisiana, Amerika Birleşik Devletleri

Enlem: 31-44-09N, Boylam: 093-05-57W, yükseklik: 37 m

Güncel hava durumu gözlemi

Rapor saat 13:35 UTC de 28 dakika önce yapıldı.
Rüzgar güney/güneydoğudan 4 kt
Sıcaklık 8°C
Nem 100%
Basınç 1021 hPa
Görüş mesafesi: 0.4 km
300 ft yükseklikte çok bulutlu
sis

METAR: KIER 081335Z AUTO 15004KT 1/4SM FG OVC003 08/08 A3015 RMK AO2 T00750075

Saat: 08:03 (14:03 UTC)


TAF: eksik

4.000'den fazla havaalanı için hava durumu gözlemleri ve tahminleri (METAR ve TAF raporları).

Kullanılabilir istasyonlar harita üzerinde sarı ve kırmızı noktalarla gösterilir.

İstasyonun adını görmek için fareyi noktanın üzerinde gezdirin.

Sonrasında hava gözlem ve tahminlerini görmek için tıklayın.

Haritayı değiştirmek için: yaklaştırmak için siyah artı işaretli yeşil düğmeye ve uzaklaştırmak için de eksi işaretli düğmeye hızla tıklayın; bitişik haritalar için yeşil okları kullanın.


METAR-TAF: